sensor_id;sensor_type;location;lat;lon;timestamp;temperature;humidity
68109;SHT30;54893;49.864;19.084;2022-10-26T00:04:41;11.57;88.05
68109;SHT30;54893;49.864;19.084;2022-10-26T00:09:42;11.38;88.55
68109;SHT30;54893;49.864;19.084;2022-10-26T00:14:42;11.12;89.34
68109;SHT30;54893;49.864;19.084;2022-10-26T00:19:42;10.90;89.77
68109;SHT30;54893;49.864;19.084;2022-10-26T00:24:43;10.77;90.04
68109;SHT30;54893;49.864;19.084;2022-10-26T00:29:43;11.02;89.25
68109;SHT30;54893;49.864;19.084;2022-10-26T00:34:43;11.17;88.80
68109;SHT30;54893;49.864;19.084;2022-10-26T00:39:44;11.02;89.18
68109;SHT30;54893;49.864;19.084;2022-10-26T00:49:48;10.95;90.25
68109;SHT30;54893;49.864;19.084;2022-10-26T00:54:51;10.95;89.59
68109;SHT30;54893;49.864;19.084;2022-10-26T00:59:54;10.93;89.70
68109;SHT30;54893;49.864;19.084;2022-10-26T01:04:56;10.93;89.83
68109;SHT30;54893;49.864;19.084;2022-10-26T01:09:57;10.89;91.29
68109;SHT30;54893;49.864;19.084;2022-10-26T01:14:58;10.84;91.02
68109;SHT30;54893;49.864;19.084;2022-10-26T01:30:38;10.50;91.39
68109;SHT30;54893;49.864;19.084;2022-10-26T01:41:10;10.41;90.81
68109;SHT30;54893;49.864;19.084;2022-10-26T01:46:12;10.12;91.65
68109;SHT30;54893;49.864;19.084;2022-10-26T01:51:13;10.11;91.52
68109;SHT30;54893;49.864;19.084;2022-10-26T01:56:21;10.04;91.54
68109;SHT30;54893;49.864;19.084;2022-10-26T02:11:57;9.82;92.61
68109;SHT30;54893;49.864;19.084;2022-10-26T02:17:13;9.65;94.21
68109;SHT30;54893;49.864;19.084;2022-10-26T02:22:49;9.60;94.92
68109;SHT30;54893;49.864;19.084;2022-10-26T02:27:55;9.51;95.29
68109;SHT30;54893;49.864;19.084;2022-10-26T02:32:58;9.57;92.92
68109;SHT30;54893;49.864;19.084;2022-10-26T02:38:01;9.65;93.74
68109;SHT30;54893;49.864;19.084;2022-10-26T02:43:10;9.44;92.75
68109;SHT30;54893;49.864;19.084;2022-10-26T02:48:11;9.33;94.09
68109;SHT30;54893;49.864;19.084;2022-10-26T02:53:38;9.07;94.44
68109;SHT30;54893;49.864;19.084;2022-10-26T02:58:43;8.90;94.90
68109;SHT30;54893;49.864;19.084;2022-10-26T03:03:45;8.80;95.51
68109;SHT30;54893;49.864;19.084;2022-10-26T03:08:45;8.70;95.45
68109;SHT30;54893;49.864;19.084;2022-10-26T03:13:46;8.55;95.82
68109;SHT30;54893;49.864;19.084;2022-10-26T03:18:46;8.53;96.01
68109;SHT30;54893;49.864;19.084;2022-10-26T03:23:46;8.49;95.96
68109;SHT30;54893;49.864;19.084;2022-10-26T03:28:47;8.49;96.28
68109;SHT30;54893;49.864;19.084;2022-10-26T03:33:47;8.65;94.53
68109;SHT30;54893;49.864;19.084;2022-10-26T03:38:47;9.00;94.07
68109;SHT30;54893;49.864;19.084;2022-10-26T03:43:48;9.10;94.04
68109;SHT30;54893;49.864;19.084;2022-10-26T03:48:48;9.04;94.30
68109;SHT30;54893;49.864;19.084;2022-10-26T03:53:48;9.02;96.17
68109;SHT30;54893;49.864;19.084;2022-10-26T03:58:48;8.94;96.18
68109;SHT30;54893;49.864;19.084;2022-10-26T04:03:49;8.65;96.15
68109;SHT30;54893;49.864;19.084;2022-10-26T04:08:49;8.46;96.40
68109;SHT30;54893;49.864;19.084;2022-10-26T04:13:50;8.34;96.27
68109;SHT30;54893;49.864;19.084;2022-10-26T04:18:51;8.55;95.10
68109;SHT30;54893;49.864;19.084;2022-10-26T04:23:51;8.90;94.53
68109;SHT30;54893;49.864;19.084;2022-10-26T04:28:51;8.97;94.72
68109;SHT30;54893;49.864;19.084;2022-10-26T04:33:52;8.80;96.48
68109;SHT30;54893;49.864;19.084;2022-10-26T04:38:52;8.59;96.02
68109;SHT30;54893;49.864;19.084;2022-10-26T04:43:52;8.46;97.67
68109;SHT30;54893;49.864;19.084;2022-10-26T04:48:53;8.39;96.45
68109;SHT30;54893;49.864;19.084;2022-10-26T04:53:54;8.27;96.83
68109;SHT30;54893;49.864;19.084;2022-10-26T04:58:54;8.21;96.95
68109;SHT30;54893;49.864;19.084;2022-10-26T05:03:54;8.16;98.35
68109;SHT30;54893;49.864;19.084;2022-10-26T05:08:55;8.06;98.32
68109;SHT30;54893;49.864;19.084;2022-10-26T05:13:55;7.98;97.38
68109;SHT30;54893;49.864;19.084;2022-10-26T05:18:55;7.94;98.14
68109;SHT30;54893;49.864;19.084;2022-10-26T05:23:56;8.08;99.17
68109;SHT30;54893;49.864;19.084;2022-10-26T05:28:56;8.14;98.14
68109;SHT30;54893;49.864;19.084;2022-10-26T05:33:56;8.32;96.08
68109;SHT30;54893;49.864;19.084;2022-10-26T05:38:57;8.38;97.07
68109;SHT30;54893;49.864;19.084;2022-10-26T05:43:58;8.37;98.18
68109;SHT30;54893;49.864;19.084;2022-10-26T05:48:58;8.44;98.27
68109;SHT30;54893;49.864;19.084;2022-10-26T05:53:58;8.63;97.56
68109;SHT30;54893;49.864;19.084;2022-10-26T05:58:59;8.70;96.97
68109;SHT30;54893;49.864;19.084;2022-10-26T06:04:02;8.87;97.26
68109;SHT30;54893;49.864;19.084;2022-10-26T06:09:09;9.09;96.04
68109;SHT30;54893;49.864;19.084;2022-10-26T06:14:10;9.31;95.74
68109;SHT30;54893;49.864;19.084;2022-10-26T06:24:47;9.94;94.15
68109;SHT30;54893;49.864;19.084;2022-10-26T06:30:00;10.25;93.01
68109;SHT30;54893;49.864;19.084;2022-10-26T06:35:43;10.66;92.18
68109;SHT30;54893;49.864;19.084;2022-10-26T06:40:50;11.07;91.15
68109;SHT30;54893;49.864;19.084;2022-10-26T06:46:02;11.36;90.37
68109;SHT30;54893;49.864;19.084;2022-10-26T06:51:09;11.73;89.52
68109;SHT30;54893;49.864;19.084;2022-10-26T06:56:12;12.14;87.90
68109;SHT30;54893;49.864;19.084;2022-10-26T07:01:13;12.46;87.26
68109;SHT30;54893;49.864;19.084;2022-10-26T07:06:13;12.80;85.70
68109;SHT30;54893;49.864;19.084;2022-10-26T07:11:13;12.95;85.17
68109;SHT30;54893;49.864;19.084;2022-10-26T07:16:14;13.07;87.44
68109;SHT30;54893;49.864;19.084;2022-10-26T07:21:14;13.44;86.52
68109;SHT30;54893;49.864;19.084;2022-10-26T07:26:14;13.61;83.84
68109;SHT30;54893;49.864;19.084;2022-10-26T07:31:15;13.81;84.72
68109;SHT30;54893;49.864;19.084;2022-10-26T07:36:15;14.18;85.30
68109;SHT30;54893;49.864;19.084;2022-10-26T07:41:15;14.29;85.41
68109;SHT30;54893;49.864;19.084;2022-10-26T07:46:16;14.33;84.95
68109;SHT30;54893;49.864;19.084;2022-10-26T07:51:17;14.55;82.41
68109;SHT30;54893;49.864;19.084;2022-10-26T07:56:17;14.75;84.05
68109;SHT30;54893;49.864;19.084;2022-10-26T08:01:18;14.90;82.95
68109;SHT30;54893;49.864;19.084;2022-10-26T08:06:19;15.11;82.30
68109;SHT30;54893;49.864;19.084;2022-10-26T08:11:19;15.47;81.33
68109;SHT30;54893;49.864;19.084;2022-10-26T08:16:20;15.74;80.41
68109;SHT30;54893;49.864;19.084;2022-10-26T08:21:21;16.02;79.81
68109;SHT30;54893;49.864;19.084;2022-10-26T08:26:22;16.14;78.90
68109;SHT30;54893;49.864;19.084;2022-10-26T08:31:22;16.35;78.15
68109;SHT30;54893;49.864;19.084;2022-10-26T08:36:24;16.68;77.97
68109;SHT30;54893;49.864;19.084;2022-10-26T08:41:33;16.62;76.23
68109;SHT30;54893;49.864;19.084;2022-10-26T08:46:38;16.76;75.18
68109;SHT30;54893;49.864;19.084;2022-10-26T08:51:40;17.27;73.64
68109;SHT30;54893;49.864;19.084;2022-10-26T08:56:45;17.27;72.85
68109;SHT30;54893;49.864;19.084;2022-10-26T09:01:46;17.34;74.91
68109;SHT30;54893;49.864;19.084;2022-10-26T09:18:43;17.19;70.75
68109;SHT30;54893;49.864;19.084;2022-10-26T09:28:35;17.71;71.89
68109;SHT30;54893;49.864;19.084;2022-10-26T09:33:39;17.75;71.68
68109;SHT30;54893;49.864;19.084;2022-10-26T09:49:02;17.77;68.90
68109;SHT30;54893;49.864;19.084;2022-10-26T09:54:18;17.81;68.89
68109;SHT30;54893;49.864;19.084;2022-10-26T09:59:21;18.00;69.02
68109;SHT30;54893;49.864;19.084;2022-10-26T10:04:23;17.98;68.46
68109;SHT30;54893;49.864;19.084;2022-10-26T10:09:23;18.14;67.71
68109;SHT30;54893;49.864;19.084;2022-10-26T10:14:33;18.07;68.73
68109;SHT30;54893;49.864;19.084;2022-10-26T10:19:37;18.25;67.27
68109;SHT30;54893;49.864;19.084;2022-10-26T10:24:42;18.51;67.84
68109;SHT30;54893;49.864;19.084;2022-10-26T10:29:53;18.28;68.86
68109;SHT30;54893;49.864;19.084;2022-10-26T10:35:00;18.25;68.35
68109;SHT30;54893;49.864;19.084;2022-10-26T10:40:07;18.19;68.93
68109;SHT30;54893;49.864;19.084;2022-10-26T10:45:19;18.01;68.24
68109;SHT30;54893;49.864;19.084;2022-10-26T10:50:20;18.05;68.03
68109;SHT30;54893;49.864;19.084;2022-10-26T10:55:21;18.07;67.41
68109;SHT30;54893;49.864;19.084;2022-10-26T11:00:23;18.07;67.43
68109;SHT30;54893;49.864;19.084;2022-10-26T11:16:04;18.07;68.78
68109;SHT30;54893;49.864;19.084;2022-10-26T11:26:31;18.19;69.82
68109;SHT30;54893;49.864;19.084;2022-10-26T11:31:50;18.25;69.21
68109;SHT30;54893;49.864;19.084;2022-10-26T11:36:58;18.27;68.21
68109;SHT30;54893;49.864;19.084;2022-10-26T11:42:20;18.37;68.24
68109;SHT30;54893;49.864;19.084;2022-10-26T11:47:28;17.74;67.12
68109;SHT30;54893;49.864;19.084;2022-10-26T11:52:42;18.22;67.83
68109;SHT30;54893;49.864;19.084;2022-10-26T11:57:44;18.34;67.27
68109;SHT30;54893;49.864;19.084;2022-10-26T12:02:49;18.48;67.93
68109;SHT30;54893;49.864;19.084;2022-10-26T12:08:03;18.28;67.54
68109;SHT30;54893;49.864;19.084;2022-10-26T12:13:20;18.39;66.27
68109;SHT30;54893;49.864;19.084;2022-10-26T12:18:36;18.14;68.15
68109;SHT30;54893;49.864;19.084;2022-10-26T12:23:56;18.09;65.77
68109;SHT30;54893;49.864;19.084;2022-10-26T12:34:01;18.19;65.74
68109;SHT30;54893;49.864;19.084;2022-10-26T12:39:02;18.32;65.12
68109;SHT30;54893;49.864;19.084;2022-10-26T13:00:22;18.34;65.32
68109;SHT30;54893;49.864;19.084;2022-10-26T13:11:06;18.34;64.72
68109;SHT30;54893;49.864;19.084;2022-10-26T13:16:15;18.21;65.20
68109;SHT30;54893;49.864;19.084;2022-10-26T13:21:17;17.88;66.50
68109;SHT30;54893;49.864;19.084;2022-10-26T13:26:20;17.94;67.13
68109;SHT30;54893;49.864;19.084;2022-10-26T13:41:59;17.61;67.39
68109;SHT30;54893;49.864;19.084;2022-10-26T13:47:08;17.61;67.74
68109;SHT30;54893;49.864;19.084;2022-10-26T13:52:14;17.49;67.86
68109;SHT30;54893;49.864;19.084;2022-10-26T13:57:20;17.41;68.07
68109;SHT30;54893;49.864;19.084;2022-10-26T14:02:28;17.39;68.47
68109;SHT30;54893;49.864;19.084;2022-10-26T14:07:44;17.20;67.81
68109;SHT30;54893;49.864;19.084;2022-10-26T14:12:46;16.97;69.01
68109;SHT30;54893;49.864;19.084;2022-10-26T14:17:49;17.10;69.42
68109;SHT30;54893;49.864;19.084;2022-10-26T14:22:50;17.07;68.96
68109;SHT30;54893;49.864;19.084;2022-10-26T14:27:51;17.05;68.49
68109;SHT30;54893;49.864;19.084;2022-10-26T14:32:52;16.93;68.47
68109;SHT30;54893;49.864;19.084;2022-10-26T14:37:56;16.71;68.44
68109;SHT30;54893;49.864;19.084;2022-10-26T14:42:58;16.48;69.48
68109;SHT30;54893;49.864;19.084;2022-10-26T14:48:00;16.33;68.90
68109;SHT30;54893;49.864;19.084;2022-10-26T14:53:03;16.21;69.51
68109;SHT30;54893;49.864;19.084;2022-10-26T14:58:19;16.00;69.93
68109;SHT30;54893;49.864;19.084;2022-10-26T15:03:21;15.85;70.21
68109;SHT30;54893;49.864;19.084;2022-10-26T15:08:43;15.44;71.24
68109;SHT30;54893;49.864;19.084;2022-10-26T15:13:43;15.11;71.89
68109;SHT30;54893;49.864;19.084;2022-10-26T15:18:47;14.71;73.10
68109;SHT30;54893;49.864;19.084;2022-10-26T15:23:49;14.35;74.05
68109;SHT30;54893;49.864;19.084;2022-10-26T15:28:50;14.11;74.60
68109;SHT30;54893;49.864;19.084;2022-10-26T15:38:52;13.46;76.33
68109;SHT30;54893;49.864;19.084;2022-10-26T15:43:57;13.39;76.28
68109;SHT30;54893;49.864;19.084;2022-10-26T15:49:06;13.16;77.43
68109;SHT30;54893;49.864;19.084;2022-10-26T15:54:08;12.79;78.41
68109;SHT30;54893;49.864;19.084;2022-10-26T15:59:16;12.62;78.64
68109;SHT30;54893;49.864;19.084;2022-10-26T16:04:17;12.55;78.61
68109;SHT30;54893;49.864;19.084;2022-10-26T16:09:17;12.46;78.64
68109;SHT30;54893;49.864;19.084;2022-10-26T16:14:18;12.28;79.94
68109;SHT30;54893;49.864;19.084;2022-10-26T16:19:18;12.14;80.31
68109;SHT30;54893;49.864;19.084;2022-10-26T16:24:19;11.94;81.61
68109;SHT30;54893;49.864;19.084;2022-10-26T16:29:19;11.66;82.75
68109;SHT30;54893;49.864;19.084;2022-10-26T16:34:19;11.56;82.97
68109;SHT30;54893;49.864;19.084;2022-10-26T16:39:20;11.47;81.72
68109;SHT30;54893;49.864;19.084;2022-10-26T16:44:20;11.60;83.37
68109;SHT30;54893;49.864;19.084;2022-10-26T16:49:20;11.66;81.80
68109;SHT30;54893;49.864;19.084;2022-10-26T16:54:21;11.64;81.37
68109;SHT30;54893;49.864;19.084;2022-10-26T16:59:22;11.74;81.20
68109;SHT30;54893;49.864;19.084;2022-10-26T17:04:22;12.11;80.99
68109;SHT30;54893;49.864;19.084;2022-10-26T17:09:23;12.10;81.56
68109;SHT30;54893;49.864;19.084;2022-10-26T17:14:23;11.68;83.53
68109;SHT30;54893;49.864;19.084;2022-10-26T17:19:23;11.70;83.57
68109;SHT30;54893;49.864;19.084;2022-10-26T17:24:24;11.78;82.97
68109;SHT30;54893;49.864;19.084;2022-10-26T17:29:24;11.57;83.89
68109;SHT30;54893;49.864;19.084;2022-10-26T17:34:24;11.10;85.22
68109;SHT30;54893;49.864;19.084;2022-10-26T17:39:25;11.07;85.66
68109;SHT30;54893;49.864;19.084;2022-10-26T17:44:25;11.57;83.12
68109;SHT30;54893;49.864;19.084;2022-10-26T17:49:25;11.66;83.70
68109;SHT30;54893;49.864;19.084;2022-10-26T17:54:26;11.30;83.41
68109;SHT30;54893;49.864;19.084;2022-10-26T17:59:26;11.16;84.82
68109;SHT30;54893;49.864;19.084;2022-10-26T18:04:27;11.04;84.77
68109;SHT30;54893;49.864;19.084;2022-10-26T18:09:27;10.99;85.01
68109;SHT30;54893;49.864;19.084;2022-10-26T18:14:27;11.10;84.78
68109;SHT30;54893;49.864;19.084;2022-10-26T18:19:28;10.93;85.76
68109;SHT30;54893;49.864;19.084;2022-10-26T18:24:28;10.66;87.84
68109;SHT30;54893;49.864;19.084;2022-10-26T18:29:28;10.62;85.86
68109;SHT30;54893;49.864;19.084;2022-10-26T18:34:28;10.62;86.14
68109;SHT30;54893;49.864;19.084;2022-10-26T18:39:29;10.75;84.39
68109;SHT30;54893;49.864;19.084;2022-10-26T18:44:29;10.92;84.54
68109;SHT30;54893;49.864;19.084;2022-10-26T18:49:30;10.97;84.37
68109;SHT30;54893;49.864;19.084;2022-10-26T18:54:30;10.75;85.68
68109;SHT30;54893;49.864;19.084;2022-10-26T18:59:30;10.49;86.62
68109;SHT30;54893;49.864;19.084;2022-10-26T19:04:31;10.44;86.35
68109;SHT30;54893;49.864;19.084;2022-10-26T19:09:31;10.49;86.24
68109;SHT30;54893;49.864;19.084;2022-10-26T19:14:31;10.38;87.52
68109;SHT30;54893;49.864;19.084;2022-10-26T19:19:32;10.16;87.47
68109;SHT30;54893;49.864;19.084;2022-10-26T19:24:32;10.53;86.72
68109;SHT30;54893;49.864;19.084;2022-10-26T19:29:33;10.65;86.56
68109;SHT30;54893;49.864;19.084;2022-10-26T19:34:33;10.50;87.47
68109;SHT30;54893;49.864;19.084;2022-10-26T19:39:33;10.22;87.29
68109;SHT30;54893;49.864;19.084;2022-10-26T19:44:34;9.99;88.92
68109;SHT30;54893;49.864;19.084;2022-10-26T19:49:34;9.98;88.54
68109;SHT30;54893;49.864;19.084;2022-10-26T19:54:34;9.94;88.97
68109;SHT30;54893;49.864;19.084;2022-10-26T19:59:35;10.09;88.27
68109;SHT30;54893;49.864;19.084;2022-10-26T20:04:35;10.19;88.58
68109;SHT30;54893;49.864;19.084;2022-10-26T20:09:35;10.09;90.05
68109;SHT30;54893;49.864;19.084;2022-10-26T20:14:36;10.01;89.22
68109;SHT30;54893;49.864;19.084;2022-10-26T20:19:36;9.88;90.93
68109;SHT30;54893;49.864;19.084;2022-10-26T20:24:36;9.99;90.27
68109;SHT30;54893;49.864;19.084;2022-10-26T20:29:37;9.88;90.31
68109;SHT30;54893;49.864;19.084;2022-10-26T20:34:37;9.57;91.58
68109;SHT30;54893;49.864;19.084;2022-10-26T20:39:38;9.55;90.10
68109;SHT30;54893;49.864;19.084;2022-10-26T20:44:41;9.37;91.09
68109;SHT30;54893;49.864;19.084;2022-10-26T20:49:42;9.10;92.35
68109;SHT30;54893;49.864;19.084;2022-10-26T20:55:03;9.14;91.30
68109;SHT30;54893;49.864;19.084;2022-10-26T21:00:07;9.57;90.39
68109;SHT30;54893;49.864;19.084;2022-10-26T21:05:09;9.67;90.71
68109;SHT30;54893;49.864;19.084;2022-10-26T21:10:09;9.67;91.92
68109;SHT30;54893;49.864;19.084;2022-10-26T21:15:10;9.33;92.67
68109;SHT30;54893;49.864;19.084;2022-10-26T21:20:10;9.04;93.27
68109;SHT30;54893;49.864;19.084;2022-10-26T21:25:10;9.03;93.17
68109;SHT30;54893;49.864;19.084;2022-10-26T21:30:11;8.97;93.96
68109;SHT30;54893;49.864;19.084;2022-10-26T21:35:11;8.90;94.95
68109;SHT30;54893;49.864;19.084;2022-10-26T21:40:12;8.82;92.85
68109;SHT30;54893;49.864;19.084;2022-10-26T21:45:13;8.79;92.54
68109;SHT30;54893;49.864;19.084;2022-10-26T21:50:13;8.76;92.09
68109;SHT30;54893;49.864;19.084;2022-10-26T21:55:14;8.76;93.56
68109;SHT30;54893;49.864;19.084;2022-10-26T22:00:14;8.69;92.06
68109;SHT30;54893;49.864;19.084;2022-10-26T22:05:15;8.65;93.62
68109;SHT30;54893;49.864;19.084;2022-10-26T22:10:15;8.66;92.07
68109;SHT30;54893;49.864;19.084;2022-10-26T22:15:16;8.68;93.29
68109;SHT30;54893;49.864;19.084;2022-10-26T22:20:16;8.68;94.75
68109;SHT30;54893;49.864;19.084;2022-10-26T22:25:16;8.77;93.65
68109;SHT30;54893;49.864;19.084;2022-10-26T22:30:17;8.89;92.71
68109;SHT30;54893;49.864;19.084;2022-10-26T22:35:17;8.89;93.35
68109;SHT30;54893;49.864;19.084;2022-10-26T22:40:17;8.84;93.35
68109;SHT30;54893;49.864;19.084;2022-10-26T22:45:18;8.73;94.06
68109;SHT30;54893;49.864;19.084;2022-10-26T22:50:18;8.59;94.48
68109;SHT30;54893;49.864;19.084;2022-10-26T22:55:18;8.44;95.51
68109;SHT30;54893;49.864;19.084;2022-10-26T23:00:19;8.48;94.64
68109;SHT30;54893;49.864;19.084;2022-10-26T23:05:19;8.53;93.93
68109;SHT30;54893;49.864;19.084;2022-10-26T23:10:19;8.72;94.22
68109;SHT30;54893;49.864;19.084;2022-10-26T23:15:20;8.86;93.51
68109;SHT30;54893;49.864;19.084;2022-10-26T23:20:20;8.84;93.84
68109;SHT30;54893;49.864;19.084;2022-10-26T23:25:20;8.83;94.26
68109;SHT30;54893;49.864;19.084;2022-10-26T23:30:20;8.73;95.63
68109;SHT30;54893;49.864;19.084;2022-10-26T23:35:21;8.58;95.37
68109;SHT30;54893;49.864;19.084;2022-10-26T23:40:22;8.53;94.94
68109;SHT30;54893;49.864;19.084;2022-10-26T23:45:22;8.35;96.05
68109;SHT30;54893;49.864;19.084;2022-10-26T23:50:22;8.37;95.28
68109;SHT30;54893;49.864;19.084;2022-10-26T23:55:23;8.48;95.05
